createdAt,value
2018-08-08T00:00:34.701Z,26.38
2018-08-08T00:01:34.700Z,26.48
2018-08-08T00:02:34.701Z,26.45
2018-08-08T00:03:34.701Z,26.51
2018-08-08T00:04:34.701Z,26.56
2018-08-08T00:05:34.701Z,26.66
2018-08-08T00:06:34.702Z,26.71
2018-08-08T00:07:34.701Z,26.68
2018-08-08T00:08:34.702Z,26.78
2018-08-08T00:09:34.702Z,26.75
2018-08-08T00:10:34.703Z,26.83
2018-08-08T00:11:34.702Z,26.85
2018-08-08T00:12:34.702Z,26.78
2018-08-08T00:13:34.704Z,26.80
2018-08-08T00:14:34.704Z,26.84
2018-08-08T00:15:34.703Z,26.74
2018-08-08T00:16:34.705Z,26.83
2018-08-08T00:17:34.705Z,26.90
2018-08-08T00:18:34.708Z,26.81
2018-08-08T00:19:34.708Z,26.84
2018-08-08T00:20:34.706Z,26.85
2018-08-08T00:21:34.706Z,26.88
2018-08-08T00:22:34.706Z,26.80
2018-08-08T00:23:34.706Z,26.83
2018-08-08T00:24:34.706Z,26.81
2018-08-08T00:25:34.707Z,26.85
2018-08-08T00:26:34.707Z,26.84
2018-08-08T00:27:34.711Z,26.93
2018-08-08T00:28:34.708Z,26.92
2018-08-08T00:29:34.707Z,26.92
2018-08-08T00:30:34.709Z,26.90
2018-08-08T00:31:34.708Z,26.83
2018-08-08T00:32:34.708Z,26.73
2018-08-08T00:33:34.709Z,26.70
2018-08-08T00:34:34.709Z,26.59
2018-08-08T00:35:34.708Z,26.44
2018-08-08T00:36:34.709Z,26.38
2018-08-08T00:37:34.709Z,26.25
2018-08-08T00:38:34.709Z,26.10
2018-08-08T00:39:34.708Z,25.98
2018-08-08T00:40:34.708Z,25.69
2018-08-08T00:41:34.709Z,25.43
2018-08-08T00:42:34.708Z,25.14
2018-08-08T00:43:34.707Z,24.60
2018-08-08T00:44:34.707Z,24.05
2018-08-08T00:45:34.707Z,23.76
2018-08-08T00:46:34.706Z,23.47
2018-08-08T00:47:34.704Z,23.12
2018-08-08T00:48:34.704Z,22.80
2018-08-08T00:49:34.704Z,22.75
2018-08-08T00:50:34.703Z,22.66
2018-08-08T00:51:34.701Z,22.48
2018-08-08T00:52:34.701Z,22.43
2018-08-08T00:53:34.699Z,22.41
2018-08-08T00:54:34.698Z,22.36
2018-08-08T00:55:34.997Z,22.30
2018-08-08T00:56:34.695Z,22.25
2018-08-08T00:57:34.694Z,22.23
2018-08-08T00:58:34.693Z,22.15
2018-08-08T00:59:34.691Z,22.10
2018-08-08T01:00:34.692Z,21.96
2018-08-08T01:01:34.688Z,22.06
2018-08-08T01:02:34.687Z,22.13
2018-08-08T01:03:34.685Z,22.17
2018-08-08T01:04:34.684Z,22.10
2018-08-08T01:05:34.682Z,21.98
2018-08-08T01:06:34.680Z,21.88
2018-08-08T01:07:34.678Z,21.91
2018-08-08T01:08:34.732Z,21.82
2018-08-08T01:09:34.675Z,21.72
2018-08-08T01:10:34.672Z,21.58
2018-08-08T01:11:34.669Z,21.57
2018-08-08T01:12:34.667Z,21.37
2018-08-08T01:13:34.665Z,21.24
2018-08-08T01:14:34.663Z,21.12
2018-08-08T01:15:34.659Z,21.05
2018-08-08T01:16:34.661Z,20.95
2018-08-08T01:17:34.655Z,20.84
2018-08-08T01:18:34.952Z,20.72
2018-08-08T01:19:34.649Z,20.56
2018-08-08T01:20:34.646Z,20.40
2018-08-08T01:21:34.644Z,20.21
2018-08-08T01:22:34.641Z,20.25
2018-08-08T01:23:34.639Z,20.31
2018-08-08T01:24:34.634Z,20.31
2018-08-08T01:25:34.631Z,20.28
2018-08-08T01:26:34.629Z,20.22
2018-08-08T01:27:34.625Z,20.28
2018-08-08T01:28:34.621Z,20.31
2018-08-08T01:29:34.618Z,20.36
2018-08-08T01:30:34.614Z,20.44
2018-08-08T01:31:34.611Z,20.51
2018-08-08T01:32:34.607Z,20.51
2018-08-08T01:33:34.603Z,20.56
2018-08-08T01:34:34.601Z,20.52
2018-08-08T01:35:34.596Z,20.56
2018-08-08T01:36:34.593Z,20.63
2018-08-08T01:37:34.590Z,20.67
2018-08-08T01:38:34.586Z,20.72
2018-08-08T01:39:34.583Z,20.78
2018-08-08T01:40:34.579Z,20.74
2018-08-08T01:41:34.576Z,20.70
2018-08-08T01:42:34.573Z,20.63
2018-08-08T01:43:34.569Z,20.59
2018-08-08T01:44:34.566Z,20.60
2018-08-08T01:45:34.591Z,20.65
2018-08-08T01:46:34.559Z,20.72
2018-08-08T01:47:34.555Z,20.74
2018-08-08T01:48:34.551Z,20.77
2018-08-08T01:49:34.549Z,20.70
2018-08-08T01:50:34.547Z,20.59
2018-08-08T01:51:34.542Z,20.41
2018-08-08T01:52:34.546Z,20.36
2018-08-08T01:53:34.535Z,20.47
2018-08-08T01:54:34.531Z,20.39
2018-08-08T01:55:34.528Z,20.32
2018-08-08T01:56:34.524Z,20.28
2018-08-08T01:57:34.521Z,20.24
2018-08-08T01:58:34.518Z,20.21
2018-08-08T01:59:34.515Z,20.26
2018-08-08T02:00:34.511Z,20.26
2018-08-08T02:01:34.508Z,20.22
2018-08-08T02:02:34.505Z,20.18
2018-08-08T02:03:34.500Z,20.31
2018-08-08T02:04:34.498Z,20.34
2018-08-08T02:05:34.495Z,20.24
2018-08-08T02:06:34.492Z,20.34
2018-08-08T02:07:34.491Z,20.31
2018-08-08T02:08:34.485Z,20.24
2018-08-08T02:09:34.482Z,20.16
2018-08-08T02:10:34.479Z,20.11
2018-08-08T02:11:34.476Z,19.96
2018-08-08T02:12:34.474Z,20.19
2018-08-08T02:13:34.473Z,20.28
2018-08-08T02:14:34.468Z,20.36
2018-08-08T02:15:34.464Z,20.41
2018-08-08T02:16:34.461Z,20.36
2018-08-08T02:17:34.459Z,20.41
2018-08-08T02:18:34.456Z,20.39
2018-08-08T02:19:34.452Z,20.56
2018-08-08T02:20:34.449Z,20.59
2018-08-08T02:21:34.447Z,20.63
2018-08-08T02:22:34.448Z,20.55
2018-08-08T02:23:34.442Z,20.52
2018-08-08T02:24:34.438Z,20.47
2018-08-08T02:25:34.436Z,20.52
2018-08-08T02:26:34.433Z,20.50
2018-08-08T02:27:34.429Z,20.59
2018-08-08T02:28:34.427Z,20.41
2018-08-08T02:29:34.424Z,20.34
2018-08-08T02:30:34.422Z,20.21
2018-08-08T02:31:34.419Z,20.19
2018-08-08T02:32:34.417Z,20.14
2018-08-08T02:33:34.414Z,20.14
2018-08-08T02:34:34.413Z,20.19
2018-08-08T02:35:34.407Z,20.13
2018-08-08T02:36:34.405Z,20.11
2018-08-08T02:37:34.402Z,20.11
2018-08-08T02:38:34.400Z,19.99
2018-08-08T02:39:34.396Z,19.99
2018-08-08T02:40:34.694Z,20.11
2018-08-08T02:41:34.390Z,20.14
2018-08-08T02:42:34.387Z,20.09
2018-08-08T02:43:34.384Z,20.07
2018-08-08T02:44:34.380Z,20.14
2018-08-08T02:45:34.376Z,20.02
2018-08-08T02:46:34.374Z,19.91
2018-08-08T02:47:34.372Z,19.91
2018-08-08T02:48:34.370Z,19.84
2018-08-08T02:49:34.364Z,19.91
2018-08-08T02:50:34.359Z,19.86
2018-08-08T02:51:34.354Z,19.94
2018-08-08T02:52:34.352Z,19.92
2018-08-08T02:53:34.348Z,20.00
2018-08-08T02:54:34.343Z,20.03
2018-08-08T02:55:34.338Z,20.02
2018-08-08T02:56:34.336Z,19.91
2018-08-08T02:57:34.331Z,19.88
2018-08-08T02:58:34.328Z,19.85
2018-08-08T02:59:34.323Z,19.84
2018-08-08T03:00:34.319Z,19.79
2018-08-08T03:01:34.316Z,19.77
2018-08-08T03:02:34.312Z,19.92
2018-08-08T03:03:34.308Z,19.86
2018-08-08T03:04:34.318Z,19.94
2018-08-08T03:05:34.301Z,20.00
2018-08-08T03:06:34.297Z,19.89
2018-08-08T03:07:34.294Z,19.89
2018-08-08T03:08:34.319Z,19.91
2018-08-08T03:09:34.286Z,19.91
2018-08-08T03:10:34.282Z,19.85
2018-08-08T03:11:34.278Z,19.69
2018-08-08T03:12:34.275Z,19.77
2018-08-08T03:13:34.272Z,19.88
2018-08-08T03:14:34.267Z,19.81
2018-08-08T03:15:34.266Z,19.94
2018-08-08T03:16:34.263Z,19.82
2018-08-08T03:17:34.256Z,19.84
2018-08-08T03:18:34.255Z,19.91
2018-08-08T03:19:34.307Z,19.86
2018-08-08T03:20:34.245Z,19.84
2018-08-08T03:21:34.241Z,19.91
2018-08-08T03:22:34.238Z,19.91
2018-08-08T03:23:34.234Z,20.03
2018-08-08T03:24:34.230Z,20.06
2018-08-08T03:25:34.226Z,20.02
2018-08-08T03:26:34.223Z,20.06
2018-08-08T03:27:34.218Z,20.04
2018-08-08T03:28:34.215Z,19.99
2018-08-08T03:29:34.214Z,20.03
2018-08-08T03:30:34.207Z,19.91
2018-08-08T03:31:34.203Z,20.02
2018-08-08T03:32:34.199Z,19.92
2018-08-08T03:33:34.195Z,19.85
2018-08-08T03:34:34.191Z,19.85
2018-08-08T03:35:34.188Z,19.77
2018-08-08T03:36:34.299Z,19.82
2018-08-08T03:37:34.179Z,19.76
2018-08-08T03:38:34.175Z,19.76
2018-08-08T03:39:34.170Z,19.86
2018-08-08T03:40:34.167Z,19.91
2018-08-08T03:41:34.163Z,19.91
2018-08-08T03:42:34.160Z,19.91
2018-08-08T03:43:34.154Z,19.94
2018-08-08T03:44:34.151Z,19.91
2018-08-08T03:45:34.147Z,19.94
2018-08-08T03:46:34.144Z,19.89
2018-08-08T03:47:34.140Z,19.89
2018-08-08T03:48:34.139Z,19.88
2018-08-08T03:49:34.131Z,19.81
2018-08-08T03:50:34.130Z,19.71
2018-08-08T03:51:34.122Z,19.71
2018-08-08T03:52:34.117Z,19.77
2018-08-08T03:53:34.113Z,19.77
2018-08-08T03:54:34.109Z,19.82
2018-08-08T03:55:34.104Z,19.77
2018-08-08T03:56:34.100Z,19.79
2018-08-08T03:57:34.100Z,19.69
2018-08-08T03:58:34.096Z,19.73
2018-08-08T03:59:34.085Z,19.69
2018-08-08T04:00:34.082Z,19.64
2018-08-08T04:01:34.078Z,19.71
2018-08-08T04:02:34.142Z,19.69
2018-08-08T04:03:34.067Z,19.64
2018-08-08T04:04:34.060Z,19.45
2018-08-08T04:05:34.124Z,19.54
2018-08-08T04:06:34.051Z,19.69
2018-08-08T04:07:34.045Z,19.69
2018-08-08T04:08:34.042Z,19.59
2018-08-08T04:09:34.036Z,19.62
2018-08-08T04:10:34.032Z,19.69
2018-08-08T04:11:34.032Z,19.66
2018-08-08T04:12:34.021Z,19.55
2018-08-08T04:13:34.020Z,19.63
2018-08-08T04:14:34.012Z,19.66
2018-08-08T04:15:34.010Z,19.71
2018-08-08T04:16:34.003Z,19.71
2018-08-08T04:17:33.998Z,19.58
2018-08-08T04:18:33.994Z,19.66
2018-08-08T04:19:33.988Z,19.69
2018-08-08T04:20:33.984Z,19.71
2018-08-08T04:21:33.980Z,19.66
2018-08-08T04:22:33.976Z,19.55
2018-08-08T04:23:33.973Z,19.66
2018-08-08T04:24:33.967Z,19.64
2018-08-08T04:25:33.963Z,19.69
2018-08-08T04:26:33.959Z,19.73
2018-08-08T04:27:33.954Z,19.67
2018-08-08T04:28:33.949Z,19.64
2018-08-08T04:29:33.945Z,19.64
2018-08-08T04:30:33.941Z,19.74
2018-08-08T04:31:33.938Z,19.67
2018-08-08T04:32:33.933Z,19.73
2018-08-08T04:33:33.929Z,19.66
2018-08-08T04:34:33.925Z,19.69
2018-08-08T04:35:33.920Z,19.66
2018-08-08T04:36:33.917Z,19.64
2018-08-08T04:37:33.912Z,19.69
2018-08-08T04:38:33.908Z,19.66
2018-08-08T04:39:33.903Z,19.74
2018-08-08T04:40:33.899Z,19.79
2018-08-08T04:41:33.896Z,19.79
2018-08-08T04:42:33.892Z,19.74
2018-08-08T04:43:33.937Z,19.63
2018-08-08T04:44:33.884Z,19.77
2018-08-08T04:45:33.880Z,19.71
2018-08-08T04:46:33.876Z,19.73
2018-08-08T04:47:33.872Z,19.67
2018-08-08T04:48:33.868Z,19.79
2018-08-08T04:49:33.864Z,19.84
2018-08-08T04:50:33.861Z,19.92
2018-08-08T04:51:33.855Z,19.95
2018-08-08T04:52:33.852Z,20.03
2018-08-08T04:53:33.848Z,20.00
2018-08-08T04:54:33.844Z,20.03
2018-08-08T04:55:33.865Z,19.92
2018-08-08T04:56:33.836Z,19.96
2018-08-08T04:57:33.833Z,20.02
2018-08-08T04:58:33.830Z,20.04
2018-08-08T04:59:33.824Z,20.06
2018-08-08T05:00:33.821Z,20.03
2018-08-08T05:01:33.817Z,20.10
2018-08-08T05:02:33.813Z,20.14
2018-08-08T05:03:33.809Z,20.14
2018-08-08T05:04:33.806Z,20.16
2018-08-08T05:05:33.802Z,20.16
2018-08-08T05:06:33.799Z,20.22
2018-08-08T05:07:33.794Z,20.25
2018-08-08T05:08:33.791Z,20.21
2018-08-08T05:09:33.789Z,20.25
2018-08-08T05:10:33.784Z,20.22
2018-08-08T05:11:33.780Z,20.31
2018-08-08T05:12:33.776Z,20.29
2018-08-08T05:13:33.773Z,20.26
2018-08-08T05:14:33.770Z,20.29
2018-08-08T05:15:33.765Z,20.28
2018-08-08T05:16:33.765Z,20.36
2018-08-08T05:17:33.759Z,20.22
2018-08-08T05:18:33.757Z,20.26
2018-08-08T05:19:33.752Z,20.25
2018-08-08T05:20:33.749Z,20.41
2018-08-08T05:21:33.746Z,20.37
2018-08-08T05:22:33.742Z,20.41
2018-08-08T05:23:33.737Z,20.37
2018-08-08T05:24:33.734Z,20.39
2018-08-08T05:25:33.732Z,20.40
2018-08-08T05:26:33.728Z,20.41
2018-08-08T05:27:33.724Z,20.59
2018-08-08T05:28:33.722Z,20.52
2018-08-08T05:29:33.719Z,20.60
2018-08-08T05:30:33.762Z,20.60
2018-08-08T05:31:33.712Z,20.65
2018-08-08T05:32:33.709Z,20.69
2018-08-08T05:33:33.706Z,20.74
2018-08-08T05:34:33.703Z,20.70
2018-08-08T05:35:33.699Z,20.74
2018-08-08T05:36:33.696Z,20.75
2018-08-08T05:37:33.725Z,20.70
2018-08-08T05:38:33.690Z,20.69
2018-08-08T05:39:33.697Z,20.87
2018-08-08T05:40:33.688Z,20.81
2018-08-08T05:41:33.681Z,20.82
2018-08-08T05:42:33.678Z,20.82
2018-08-08T05:43:33.674Z,20.88
2018-08-08T05:44:33.673Z,20.95
2018-08-08T05:45:33.669Z,20.92
2018-08-08T05:46:33.666Z,20.90
2018-08-08T05:47:33.662Z,20.92
2018-08-08T05:48:33.659Z,20.87
2018-08-08T05:49:33.657Z,20.90
2018-08-08T05:50:33.654Z,20.92
2018-08-08T05:51:33.650Z,20.92
2018-08-08T05:52:33.647Z,20.88
2018-08-08T05:53:33.646Z,20.92
2018-08-08T05:54:33.641Z,20.96
2018-08-08T05:55:33.637Z,20.95
2018-08-08T05:56:33.634Z,20.95
2018-08-08T05:57:33.632Z,20.99
2018-08-08T05:58:33.629Z,20.99
2018-08-08T05:59:33.628Z,20.99
2018-08-08T06:00:33.622Z,21.03
2018-08-08T06:01:33.650Z,21.00
2018-08-08T06:02:33.618Z,21.02
2018-08-08T06:03:33.613Z,21.09
2018-08-08T06:04:33.610Z,21.02
2018-08-08T06:05:33.607Z,21.06
2018-08-08T06:06:33.605Z,21.07
2018-08-08T06:07:33.601Z,21.09
2018-08-08T06:08:33.599Z,21.14
2018-08-08T06:09:33.596Z,21.15
2018-08-08T06:10:33.593Z,21.15
2018-08-08T06:11:33.592Z,21.12
2018-08-08T06:12:33.586Z,21.12
2018-08-08T06:13:33.584Z,21.14
2018-08-08T06:14:33.582Z,21.17
2018-08-08T06:15:33.578Z,21.27
2018-08-08T06:16:33.576Z,21.18
2018-08-08T06:17:33.574Z,21.29
2018-08-08T06:18:33.570Z,21.30
2018-08-08T06:19:33.568Z,21.33
2018-08-08T06:20:33.565Z,21.32
2018-08-08T06:21:33.562Z,21.18
2018-08-08T06:22:33.560Z,21.17
2018-08-08T06:23:33.556Z,21.20
2018-08-08T06:24:33.554Z,21.12
2018-08-08T06:25:33.554Z,21.18
2018-08-08T06:26:33.550Z,21.14
2018-08-08T06:27:33.547Z,21.07
2018-08-08T06:28:33.544Z,21.25
2018-08-08T06:29:33.541Z,21.32
2018-08-08T06:30:33.556Z,21.29
2018-08-08T06:31:33.536Z,21.20
2018-08-08T06:32:33.535Z,21.12
2018-08-08T06:33:33.602Z,21.12
2018-08-08T06:34:33.530Z,21.18
2018-08-08T06:35:33.526Z,21.33
2018-08-08T06:36:33.524Z,21.29
2018-08-08T06:37:33.521Z,21.27
2018-08-08T06:38:33.523Z,21.32
2018-08-08T06:39:33.517Z,21.29
2018-08-08T06:40:33.514Z,21.32
2018-08-08T06:41:33.512Z,21.33
2018-08-08T06:42:33.510Z,21.33
2018-08-08T06:43:33.509Z,21.39
2018-08-08T06:44:33.505Z,21.45
2018-08-08T06:45:33.503Z,21.45
2018-08-08T06:46:33.501Z,21.39
2018-08-08T06:47:33.498Z,21.33
2018-08-08T06:48:33.498Z,21.40
2018-08-08T06:49:33.494Z,21.39
2018-08-08T06:50:33.492Z,21.37
2018-08-08T06:51:33.489Z,21.42
2018-08-08T06:52:33.487Z,21.42
2018-08-08T06:53:33.485Z,21.35
2018-08-08T06:54:33.483Z,21.43
2018-08-08T06:55:33.480Z,21.48
2018-08-08T06:56:33.478Z,21.42
2018-08-08T06:57:33.476Z,21.40
2018-08-08T06:58:33.474Z,21.33
2018-08-08T06:59:33.471Z,21.24
2018-08-08T07:00:33.469Z,21.27
2018-08-08T07:01:33.472Z,21.36
2018-08-08T07:02:33.464Z,21.32
2018-08-08T07:03:33.461Z,21.25
2018-08-08T07:04:33.460Z,21.36
2018-08-08T07:05:33.491Z,21.43
2018-08-08T07:06:33.454Z,21.40
2018-08-08T07:07:33.452Z,21.57
2018-08-08T07:08:33.449Z,21.60
2018-08-08T07:09:33.447Z,21.55
2018-08-08T07:10:33.445Z,21.66
2018-08-08T07:11:33.442Z,21.66
2018-08-08T07:12:33.440Z,21.75
2018-08-08T07:13:33.446Z,21.73
2018-08-08T07:14:33.436Z,21.72
2018-08-08T07:15:33.432Z,21.80
2018-08-08T07:16:33.432Z,21.85
2018-08-08T07:17:33.428Z,21.77
2018-08-08T07:18:33.426Z,21.70
2018-08-08T07:19:33.423Z,21.77
2018-08-08T07:20:33.421Z,21.79
2018-08-08T07:21:33.424Z,21.85
2018-08-08T07:22:33.418Z,22.00
2018-08-08T07:23:33.416Z,22.04
2018-08-08T07:24:33.415Z,22.08
2018-08-08T07:25:33.465Z,22.15
2018-08-08T07:26:33.416Z,22.23
2018-08-08T07:27:33.412Z,22.33
2018-08-08T07:28:33.411Z,22.38
2018-08-08T07:29:33.411Z,22.44
2018-08-08T07:30:33.411Z,22.36
2018-08-08T07:31:33.410Z,22.41
2018-08-08T07:32:33.410Z,22.39
2018-08-08T07:33:33.410Z,22.45
2018-08-08T07:34:33.411Z,22.60
2018-08-08T07:35:33.410Z,22.62
2018-08-08T07:36:33.411Z,22.65
2018-08-08T07:37:33.412Z,22.73
2018-08-08T07:38:33.413Z,22.98
2018-08-08T07:39:33.413Z,23.02
2018-08-08T07:40:33.472Z,23.13
2018-08-08T07:41:33.417Z,23.20
2018-08-08T07:42:33.419Z,23.23
2018-08-08T07:43:33.421Z,23.34
2018-08-08T07:44:33.426Z,23.48
2018-08-08T07:45:33.486Z,23.62
2018-08-08T07:46:33.435Z,23.66
2018-08-08T07:47:33.456Z,23.74
2018-08-08T07:48:33.435Z,23.83
2018-08-08T07:49:33.438Z,23.84
2018-08-08T07:50:33.442Z,23.87
2018-08-08T07:51:33.445Z,23.65
2018-08-08T07:52:33.449Z,23.59
2018-08-08T07:53:33.451Z,23.39
2018-08-08T07:54:33.455Z,23.39
2018-08-08T07:55:33.457Z,23.40
2018-08-08T07:56:33.460Z,23.56
2018-08-08T07:57:33.463Z,23.69
2018-08-08T07:58:33.467Z,23.80
2018-08-08T07:59:33.469Z,23.87
2018-08-08T08:00:33.473Z,23.95
2018-08-08T08:01:33.478Z,24.08
2018-08-08T08:02:33.482Z,24.20
2018-08-08T08:03:33.487Z,24.24
2018-08-08T08:04:33.488Z,24.35
2018-08-08T08:05:33.492Z,24.36
2018-08-08T08:06:33.500Z,24.23
2018-08-08T08:07:33.500Z,24.11
2018-08-08T08:08:33.505Z,23.86
2018-08-08T08:09:33.508Z,23.86
2018-08-08T08:10:33.512Z,23.68
2018-08-08T08:11:33.514Z,23.47
2018-08-08T08:12:33.517Z,23.39
2018-08-08T08:13:33.519Z,23.44
2018-08-08T08:14:33.522Z,23.44
2018-08-08T08:15:33.526Z,23.54
2018-08-08T08:16:33.526Z,23.66
2018-08-08T08:17:33.528Z,23.71
2018-08-08T08:18:33.531Z,23.81
2018-08-08T08:19:33.533Z,23.87
2018-08-08T08:20:33.536Z,24.17
2018-08-08T08:21:33.539Z,24.17
2018-08-08T08:22:33.543Z,24.33
2018-08-08T08:23:33.546Z,24.40
2018-08-08T08:24:33.549Z,24.33
2018-08-08T08:25:33.553Z,24.50
2018-08-08T08:26:33.558Z,24.68
2018-08-08T08:27:33.561Z,24.78
2018-08-08T08:28:33.566Z,25.03
2018-08-08T08:29:33.572Z,25.08
2018-08-08T08:30:33.577Z,25.14
2018-08-08T08:31:33.583Z,24.84
2018-08-08T08:32:33.591Z,24.99
2018-08-08T08:33:33.594Z,25.16
2018-08-08T08:34:33.601Z,25.11
2018-08-08T08:35:33.610Z,24.86
2018-08-08T08:36:33.612Z,25.04
2018-08-08T08:37:33.619Z,25.23
2018-08-08T08:38:33.626Z,25.43
2018-08-08T08:39:33.637Z,25.46
2018-08-08T08:40:33.639Z,25.47
2018-08-08T08:41:33.647Z,25.32
2018-08-08T08:42:33.654Z,25.47
2018-08-08T08:43:33.664Z,25.70
2018-08-08T08:44:33.668Z,25.73
2018-08-08T08:45:33.677Z,25.38
2018-08-08T08:46:33.685Z,25.25
2018-08-08T08:47:33.691Z,25.38
2018-08-08T08:48:33.699Z,25.50
2018-08-08T08:49:33.707Z,25.31
2018-08-08T08:50:33.713Z,25.23
2018-08-08T08:51:33.719Z,25.13
2018-08-08T08:52:33.725Z,25.06
2018-08-08T08:53:33.731Z,24.86
2018-08-08T08:54:33.737Z,24.61
2018-08-08T08:55:33.740Z,24.39
2018-08-08T08:56:33.745Z,24.16
2018-08-08T08:57:33.749Z,23.95
2018-08-08T08:58:33.752Z,23.77
2018-08-08T08:59:33.755Z,23.69
2018-08-08T09:00:33.758Z,23.66
2018-08-08T09:01:33.761Z,23.71
2018-08-08T09:02:33.887Z,23.96
2018-08-08T09:03:33.766Z,24.14
2018-08-08T09:04:33.769Z,24.33
2018-08-08T09:05:33.774Z,24.55
2018-08-08T09:06:33.780Z,24.50
2018-08-08T09:07:33.912Z,24.50
2018-08-08T09:08:33.784Z,24.42
2018-08-08T09:09:33.788Z,24.35
2018-08-08T09:10:33.792Z,24.51
2018-08-08T09:11:33.799Z,24.36
2018-08-08T09:12:33.800Z,24.36
2018-08-08T09:13:33.803Z,24.47
2018-08-08T09:14:33.807Z,24.50
2018-08-08T09:15:33.810Z,24.80
2018-08-08T09:16:33.814Z,24.98
2018-08-08T09:17:33.820Z,25.21
2018-08-08T09:18:33.829Z,25.26
2018-08-08T09:19:33.830Z,25.41
2018-08-08T09:20:33.835Z,25.22
2018-08-08T09:21:33.841Z,24.96
2018-08-08T09:22:33.849Z,24.77
2018-08-08T09:23:33.850Z,24.63
2018-08-08T09:24:33.854Z,24.61
2018-08-08T09:25:33.859Z,24.54
2018-08-08T09:26:33.864Z,24.55
2018-08-08T09:27:33.867Z,24.57
2018-08-08T09:28:33.922Z,24.68
2018-08-08T09:29:33.875Z,24.81
2018-08-08T09:30:33.980Z,25.06
2018-08-08T09:31:33.883Z,25.32
2018-08-08T09:32:33.888Z,25.44
2018-08-08T09:33:33.892Z,25.36
2018-08-08T09:34:33.898Z,25.35
2018-08-08T09:35:33.902Z,25.14
2018-08-08T09:36:33.906Z,25.08
2018-08-08T09:37:33.910Z,24.99
2018-08-08T09:38:33.915Z,24.73
2018-08-08T09:39:33.917Z,24.68
2018-08-08T09:40:33.921Z,24.51
2018-08-08T09:41:33.925Z,24.54
2018-08-08T09:42:33.928Z,24.38
2018-08-08T09:43:33.930Z,24.21
2018-08-08T09:44:33.943Z,24.36
2018-08-08T09:46:33.939Z,24.43
2018-08-08T09:47:33.941Z,24.48
2018-08-08T09:48:33.944Z,24.60
2018-08-08T09:49:33.948Z,24.57
2018-08-08T09:50:33.950Z,24.50
2018-08-08T09:51:33.953Z,24.65
2018-08-08T09:52:33.956Z,24.78
2018-08-08T09:53:33.959Z,24.98
2018-08-08T09:54:33.963Z,25.04
2018-08-08T09:55:34.016Z,24.93
2018-08-08T09:56:33.969Z,24.81
2018-08-08T09:57:33.972Z,24.69
2018-08-08T09:58:33.978Z,24.58
2018-08-08T09:59:33.988Z,24.74
2018-08-08T10:00:33.980Z,24.76
2018-08-08T10:01:33.984Z,24.70
2018-08-08T10:02:33.986Z,24.78
2018-08-08T10:03:34.071Z,24.88
2018-08-08T10:04:33.992Z,25.10
2018-08-08T10:05:33.996Z,25.21
2018-08-08T10:06:34.000Z,25.25
2018-08-08T10:07:34.002Z,25.16
2018-08-08T10:08:34.007Z,25.28
2018-08-08T10:09:34.009Z,25.48
2018-08-08T10:10:34.013Z,25.33
2018-08-08T10:11:34.017Z,25.33
2018-08-08T10:12:34.020Z,25.32
2018-08-08T10:13:34.029Z,25.38
2018-08-08T10:14:34.033Z,25.59
2018-08-08T10:15:34.037Z,25.60
2018-08-08T10:16:34.040Z,25.99
2018-08-08T10:17:34.047Z,26.36
2018-08-08T10:18:34.054Z,26.73
2018-08-08T10:19:34.060Z,27.14
2018-08-08T10:20:34.070Z,27.26
2018-08-08T10:21:34.076Z,27.14
2018-08-08T10:22:34.085Z,27.10
2018-08-08T10:23:34.093Z,27.14
2018-08-08T10:24:34.102Z,27.02
2018-08-08T10:25:34.111Z,27.07
2018-08-08T10:26:34.190Z,27.17
2018-08-08T10:27:34.132Z,27.22
2018-08-08T10:28:34.138Z,27.14
2018-08-08T10:29:34.148Z,27.42
2018-08-08T10:30:34.160Z,27.44
2018-08-08T10:31:34.168Z,27.40
2018-08-08T10:32:34.178Z,27.27
2018-08-08T10:33:34.195Z,27.35
2018-08-08T10:34:34.201Z,27.21
2018-08-08T10:35:34.207Z,27.20
2018-08-08T10:36:34.218Z,27.17
2018-08-08T10:37:34.227Z,27.36
2018-08-08T10:38:34.238Z,27.47
2018-08-08T10:39:34.247Z,27.44
2018-08-08T10:40:34.258Z,27.40
2018-08-08T10:41:34.268Z,27.44
2018-08-08T10:42:34.279Z,27.40
2018-08-08T10:43:34.288Z,27.27
2018-08-08T10:44:34.299Z,27.12
2018-08-08T10:45:34.312Z,27.14
2018-08-08T10:46:34.320Z,27.10
2018-08-08T10:47:34.330Z,27.20
2018-08-08T10:48:34.341Z,27.37
2018-08-08T10:49:34.352Z,27.00
2018-08-08T10:50:34.362Z,26.51
2018-08-08T10:51:34.372Z,26.45
2018-08-08T10:52:34.382Z,26.52
2018-08-08T10:53:34.393Z,26.85
2018-08-08T10:54:34.404Z,27.17
2018-08-08T10:55:34.439Z,27.35
2018-08-08T10:56:34.429Z,27.55
2018-08-08T10:57:34.436Z,27.93
2018-08-08T10:58:34.447Z,27.90
2018-08-08T10:59:34.475Z,27.85
2018-08-08T11:00:34.468Z,27.44
2018-08-08T11:01:34.479Z,27.35
2018-08-08T11:02:34.490Z,27.54
2018-08-08T11:03:34.501Z,27.59
2018-08-08T11:04:34.512Z,27.78
2018-08-08T11:05:34.528Z,27.95
2018-08-08T11:06:34.536Z,28.15
2018-08-08T11:07:34.544Z,27.74
2018-08-08T11:08:34.558Z,27.54
2018-08-08T11:09:34.567Z,27.39
2018-08-08T11:10:34.579Z,27.58
2018-08-08T11:11:34.593Z,27.96
2018-08-08T11:12:34.604Z,28.05
2018-08-08T11:13:34.612Z,28.22
2018-08-08T11:14:34.624Z,28.12
2018-08-08T11:15:34.634Z,28.01
2018-08-08T11:16:34.646Z,27.55
2018-08-08T11:17:34.656Z,27.44
2018-08-08T11:18:34.666Z,27.15
2018-08-08T11:19:34.676Z,27.11
2018-08-08T11:20:34.707Z,27.08
2018-08-08T11:21:34.696Z,27.02
2018-08-08T11:22:34.708Z,27.20
2018-08-08T11:23:34.714Z,27.11
2018-08-08T11:24:34.724Z,27.27
2018-08-08T11:25:34.738Z,27.03
2018-08-08T11:26:34.752Z,26.85
2018-08-08T11:27:34.752Z,26.55
2018-08-08T11:28:34.761Z,26.34
2018-08-08T11:29:34.768Z,26.00
2018-08-08T11:30:34.781Z,25.90
2018-08-08T11:31:34.782Z,25.83
2018-08-08T11:32:34.788Z,25.77
2018-08-08T11:33:34.803Z,25.84
2018-08-08T11:34:34.801Z,25.70
2018-08-08T11:35:34.806Z,25.47
2018-08-08T11:36:34.812Z,25.32
2018-08-08T11:37:34.817Z,25.36
2018-08-08T11:38:34.823Z,25.66
2018-08-08T11:39:34.827Z,25.93
2018-08-08T11:40:34.833Z,26.34
2018-08-08T11:41:34.839Z,26.48
2018-08-08T11:42:34.850Z,26.66
2018-08-08T11:43:34.852Z,26.81
2018-08-08T11:44:34.858Z,26.68
2018-08-08T11:45:34.866Z,26.83
2018-08-08T11:46:34.941Z,27.17
2018-08-08T11:47:34.881Z,27.35
2018-08-08T11:48:34.889Z,27.37
2018-08-08T11:49:35.200Z,27.35
2018-08-08T11:50:34.906Z,27.40
2018-08-08T11:51:34.915Z,27.42
2018-08-08T11:52:34.923Z,27.21
2018-08-08T11:53:34.933Z,26.97
2018-08-08T11:54:34.937Z,26.53
2018-08-08T11:55:34.944Z,26.36
2018-08-08T11:56:34.952Z,26.62
2018-08-08T11:57:34.959Z,26.99
2018-08-08T11:58:34.970Z,27.08
2018-08-08T11:59:34.974Z,27.12
2018-08-08T12:00:34.982Z,27.20
2018-08-08T12:01:34.990Z,26.85
2018-08-08T12:02:34.997Z,26.83
2018-08-08T12:03:35.004Z,26.84
2018-08-08T12:04:35.012Z,26.51
2018-08-08T12:05:35.019Z,26.23
2018-08-08T12:06:35.026Z,25.90
2018-08-08T12:07:35.031Z,25.60
2018-08-08T12:08:35.038Z,25.44
2018-08-08T12:09:35.041Z,25.50
2018-08-08T12:10:35.062Z,25.44
2018-08-08T12:11:35.050Z,25.29
2018-08-08T12:12:35.054Z,25.25
2018-08-08T12:13:35.059Z,25.22
2018-08-08T12:14:35.063Z,25.28
2018-08-08T12:15:35.065Z,25.33
2018-08-08T12:16:35.069Z,25.18
2018-08-08T12:17:35.072Z,25.14
2018-08-08T12:18:35.075Z,25.08
2018-08-08T12:19:35.081Z,24.99
2018-08-08T12:20:35.082Z,24.96
2018-08-08T12:21:35.083Z,25.01
2018-08-08T12:22:35.125Z,24.93
2018-08-08T12:23:35.087Z,24.86
2018-08-08T12:24:35.089Z,24.88
2018-08-08T12:25:35.128Z,24.88
2018-08-08T12:26:35.094Z,24.88
2018-08-08T12:27:35.094Z,24.77
2018-08-08T12:28:35.152Z,24.80
2018-08-08T12:29:35.098Z,24.86
2018-08-08T12:30:35.104Z,24.84
2018-08-08T12:31:35.177Z,24.88
2018-08-08T12:32:35.107Z,24.80
2018-08-08T12:33:35.104Z,24.69
2018-08-08T12:34:35.108Z,24.74
2018-08-08T12:35:35.116Z,24.60
2018-08-08T12:36:35.108Z,24.58
2018-08-08T12:37:35.110Z,24.43
2018-08-08T12:38:35.111Z,24.40
2018-08-08T12:39:35.111Z,24.35
2018-08-08T12:40:35.112Z,24.39
2018-08-08T12:41:35.114Z,24.70
2018-08-08T12:42:35.115Z,25.08
2018-08-08T12:43:35.115Z,25.06
2018-08-08T12:44:35.136Z,25.11
2018-08-08T12:45:35.119Z,24.95
2018-08-08T12:46:35.121Z,24.77
2018-08-08T12:47:35.124Z,24.73
2018-08-08T12:48:35.124Z,24.43
2018-08-08T12:49:35.125Z,24.26
2018-08-08T12:50:35.126Z,24.14
2018-08-08T12:51:35.126Z,24.17
2018-08-08T12:52:35.127Z,24.11
2018-08-08T12:53:35.128Z,24.42